Time;durP1;ratioP1;P1;durP2;ratioP2;P2;SDS_P1;SDS_P2;PMS_P1;PMS_P2;Temp;Humidity;BMP_temperature;BMP_pressure;BME280_temperature;BME280_humidity;BME280_pressure;Samples;Min_cycle;Max_cycle;Signal;HPM_P1;HPM_P2
2023/06/07 00:01:58;;;;;;;0.70;0.70;;;;;;;;;;5064295;28;20023;-86
2023/06/07 00:04:23;;;;;;;1.85;1.08;;;;;;;;;;5064795;28;20075;-87
2023/06/07 00:06:49;;;;;;;1.17;1.08;;;;;;;;;;5063189;28;20056;-87
2023/06/07 00:09:15;;;;;;;1.38;1.20;;;;;;;;;;5065424;28;20025;-86
2023/06/07 00:11:42;;;;;;;2.08;1.27;;;;;;;;;;5055256;28;20107;-86
2023/06/07 00:14:08;;;;;;;1.20;0.80;;;;;;;;;;5066840;28;20028;-86
2023/06/07 00:16:33;;;;;;;1.27;1.17;;;;;;;;;;5060084;28;20440;-86
2023/06/07 00:19:11;;;;;;;0.63;0.55;;;;;;;;;;5063383;28;20033;-86
2023/06/07 00:21:38;;;;;;;1.23;1.08;;;;;;;;;;5061673;28;20422;-85
2023/06/07 00:24:07;;;;;;;6.93;1.20;;;;;;;;;;5062595;28;20151;-87
2023/06/07 00:26:33;;;;;;;1.88;1.00;;;;;;;;;;5055778;28;20035;-85
2023/06/07 00:29:01;;;;;;;3.83;1.60;;;;;;;;;;5059459;28;20029;-86
2023/06/07 00:31:26;;;;;;;0.90;0.75;;;;;;;;;;5056036;28;20056;-86
2023/06/07 00:33:52;;;;;;;1.58;0.85;;;;;;;;;;5063402;28;20055;-89
2023/06/07 00:36:18;;;;;;;1.80;0.90;;;;;;;;;;5062440;28;20468;-87
2023/06/07 00:38:43;;;;;;;1.20;0.77;;;;;;;;;;5064729;28;20498;-88
2023/06/07 00:41:15;;;;;;;0.75;0.70;;;;;;;;;;5058175;28;20095;-88
2023/06/07 00:43:41;;;;;;;2.30;1.38;;;;;;;;;;5058113;28;20060;-87
2023/06/07 00:46:09;;;;;;;1.60;0.98;;;;;;;;;;5058458;28;20510;-88
2023/06/07 00:48:35;;;;;;;2.20;1.15;;;;;;;;;;5056736;28;20112;-90
2023/06/07 00:51:04;;;;;;;1.00;0.90;;;;;;;;;;5056236;28;20123;-88
2023/06/07 00:53:31;;;;;;;1.73;1.30;;;;;;;;;;5060603;28;20387;-86
2023/06/07 00:56:02;;;;;;;1.10;0.73;;;;;;;;;;5067878;28;20028;-87
2023/06/07 00:58:28;;;;;;;1.02;0.75;;;;;;;;;;5052138;28;20035;-86
2023/06/07 01:00:54;;;;;;;1.40;1.10;;;;;;;;;;5054405;28;20384;-87
2023/06/07 01:03:21;;;;;;;0.98;0.80;;;;;;;;;;5057811;28;20025;-87
2023/06/07 01:05:48;;;;;;;1.27;1.15;;;;;;;;;;5054119;28;20024;-87
2023/06/07 01:08:14;;;;;;;1.13;0.73;;;;;;;;;;5053999;28;20035;-85
2023/06/07 01:10:40;;;;;;;1.23;0.93;;;;;;;;;;5067596;28;20115;-86
2023/06/07 01:13:10;;;;;;;1.63;1.05;;;;;;;;;;5060571;28;20541;-85
2023/06/07 01:15:37;;;;;;;3.28;1.05;;;;;;;;;;5057417;28;20029;-85
2023/06/07 01:18:04;;;;;;;0.85;0.65;;;;;;;;;;5064778;28;20036;-87
2023/06/07 01:20:34;;;;;;;2.70;1.15;;;;;;;;;;5058793;28;20048;-86
2023/06/07 01:23:00;;;;;;;;;;;;;;;;;;5056345;28;20032;-87
2023/06/07 01:25:26;;;;;;;2.08;1.23;;;;;;;;;;5056510;28;20303;-85
2023/06/07 01:27:53;;;;;;;1.05;0.90;;;;;;;;;;5052602;28;20107;-85
2023/06/07 01:30:33;;;;;;;1.13;0.70;;;;;;;;;;5062667;28;20709;-87
2023/06/07 01:33:00;;;;;;;;;;;;;;;;;;5053058;28;20446;-87
2023/06/07 01:35:34;;;;;;;1.27;0.63;;;;;;;;;;5061991;28;19912;-87
2023/06/07 01:38:05;;;;;;;1.00;0.90;;;;;;;;;;5062884;28;20036;-86
2023/06/07 01:40:38;;;;;;;0.93;0.68;;;;;;;;;;5056465;28;20031;-84
2023/06/07 01:43:07;;;;;;;2.33;0.98;;;;;;;;;;5062426;28;20024;-87
2023/06/07 01:45:33;;;;;;;1.50;1.40;;;;;;;;;;5064456;28;20061;-85
2023/06/07 01:48:08;;;;;;;2.45;0.95;;;;;;;;;;5061243;28;20104;-85
2023/06/07 01:50:37;;;;;;;2.45;1.05;;;;;;;;;;5055998;28;20025;-85
2023/06/07 01:53:19;;;;;;;0.93;0.80;;;;;;;;;;5060471;28;20037;-88
2023/06/07 01:55:45;;;;;;;2.33;1.45;;;;;;;;;;5052034;28;20040;-88
2023/06/07 01:58:32;;;;;;;1.65;0.45;;;;;;;;;;5067069;28;20396;-89
2023/06/07 02:01:24;;;;;;;0.60;0.60;;;;;;;;;;5059850;28;20025;-86
2023/06/07 02:03:53;;;;;;;1.63;0.90;;;;;;;;;;5065709;28;20039;-87
2023/06/07 02:06:30;;;;;;;1.90;1.15;;;;;;;;;;5055806;28;20028;-87
2023/06/07 02:09:00;;;;;;;1.52;1.10;;;;;;;;;;5061409;28;20481;-87
2023/06/07 02:11:27;;;;;;;1.52;0.70;;;;;;;;;;5061205;28;20025;-86
2023/06/07 02:13:53;;;;;;;1.90;1.00;;;;;;;;;;5054929;28;20532;-86
2023/06/07 02:16:35;;;;;;;0.82;0.80;;;;;;;;;;5061736;28;20385;-86
2023/06/07 02:19:11;;;;;;;1.50;1.10;;;;;;;;;;5061882;28;20068;-88
2023/06/07 02:21:45;;;;;;;0.43;0.43;;;;;;;;;;5060862;28;20043;-86
2023/06/07 02:24:13;;;;;;;0.82;0.68;;;;;;;;;;5056371;28;20024;-86
2023/06/07 02:26:40;;;;;;;1.33;1.08;;;;;;;;;;5064735;28;20029;-88
2023/06/07 02:29:08;;;;;;;2.20;1.20;;;;;;;;;;5054865;28;20096;-85
2023/06/07 02:31:37;;;;;;;1.50;0.80;;;;;;;;;;5057585;28;20111;-87
2023/06/07 02:34:02;;;;;;;1.02;0.60;;;;;;;;;;5056764;28;20032;-86
2023/06/07 02:36:32;;;;;;;1.08;0.90;;;;;;;;;;5055906;28;20025;-85
2023/06/07 02:38:58;;;;;;;0.98;0.73;;;;;;;;;;5049962;28;20132;-85
2023/06/07 02:41:27;;;;;;;2.90;1.50;;;;;;;;;;5055964;28;20108;-88
2023/06/07 02:43:52;;;;;;;0.93;0.77;;;;;;;;;;5061852;28;20028;-88
2023/06/07 02:46:21;;;;;;;4.35;1.15;;;;;;;;;;5063353;28;20033;-86
2023/06/07 02:48:49;;;;;;;1.05;0.85;;;;;;;;;;5063461;28;20024;-86
2023/06/07 02:51:15;;;;;;;1.17;1.05;;;;;;;;;;5057286;28;20079;-85
2023/06/07 02:53:41;;;;;;;1.13;1.02;;;;;;;;;;5052463;28;20517;-85
2023/06/07 02:56:10;;;;;;;1.20;0.82;;;;;;;;;;5063928;28;20136;-86
2023/06/07 02:58:36;;;;;;;1.13;0.80;;;;;;;;;;5066412;28;20024;-86
2023/06/07 03:01:07;;;;;;;2.10;1.20;;;;;;;;;;5050105;28;20389;-85
2023/06/07 03:03:36;;;;;;;2.17;1.23;;;;;;;;;;5052851;28;20036;-86
2023/06/07 03:06:07;;;;;;;1.77;1.20;;;;;;;;;;5059575;28;20033;-86
2023/06/07 03:08:42;;;;;;;2.30;1.10;;;;;;;;;;5063485;28;20033;-85
2023/06/07 03:11:08;;;;;;;2.10;1.38;;;;;;;;;;5060631;28;20108;-85
2023/06/07 03:13:33;;;;;;;1.25;0.77;;;;;;;;;;5060918;28;20064;-86
2023/06/07 03:15:59;;;;;;;1.58;1.10;;;;;;;;;;5055753;28;20029;-85
2023/06/07 03:18:24;;;;;;;1.85;1.02;;;;;;;;;;5061978;28;20024;-85
2023/06/07 03:20:53;;;;;;;1.88;1.50;;;;;;;;;;5066176;28;20072;-86
2023/06/07 03:23:18;;;;;;;1.90;1.27;;;;;;;;;;5064715;28;20056;-86
2023/06/07 03:25:45;;;;;;;1.85;1.23;;;;;;;;;;5063785;28;20074;-86
2023/06/07 03:28:10;;;;;;;1.30;0.90;;;;;;;;;;5064328;28;20035;-86
2023/06/07 03:30:42;;;;;;;1.27;1.17;;;;;;;;;;5055483;28;20044;-85
2023/06/07 03:33:07;;;;;;;0.63;0.60;;;;;;;;;;5062235;28;20037;-87
2023/06/07 03:35:39;;;;;;;1.30;0.93;;;;;;;;;;5060454;28;20574;-85
2023/06/07 03:38:04;;;;;;;2.05;1.10;;;;;;;;;;5058572;28;20443;-86
2023/06/07 03:40:33;;;;;;;1.45;0.98;;;;;;;;;;5059286;28;20473;-85
2023/06/07 03:42:59;;;;;;;2.03;1.45;;;;;;;;;;5066707;28;20109;-85
2023/06/07 03:45:25;;;;;;;0.88;0.63;;;;;;;;;;5067267;28;20028;-86
2023/06/07 03:47:50;;;;;;;1.08;0.85;;;;;;;;;;5065240;28;20042;-86
2023/06/07 03:50:19;;;;;;;2.72;1.13;;;;;;;;;;5052398;28;20481;-86
2023/06/07 03:52:45;;;;;;;2.08;1.10;;;;;;;;;;5054265;28;20031;-86
2023/06/07 03:55:13;;;;;;;0.75;0.73;;;;;;;;;;5054946;28;20077;-87
2023/06/07 03:57:39;;;;;;;1.08;0.60;;;;;;;;;;5055363;28;20028;-85
2023/06/07 04:00:27;;;;;;;1.00;0.63;;;;;;;;;;5062483;28;20469;-87
2023/06/07 04:02:56;;;;;;;1.25;0.98;;;;;;;;;;5065974;28;20037;-86
2023/06/07 04:05:25;;;;;;;2.17;1.53;;;;;;;;;;5059209;28;20107;-85
2023/06/07 04:07:51;;;;;;;1.45;1.00;;;;;;;;;;5059809;28;20410;-86
2023/06/07 04:10:16;;;;;;;1.10;0.98;;;;;;;;;;5050677;28;20033;-85
2023/06/07 04:12:43;;;;;;;2.10;1.38;;;;;;;;;;5051626;28;20027;-83
2023/06/07 04:15:12;;;;;;;1.10;0.95;;;;;;;;;;5057338;28;20441;-86
2023/06/07 04:17:37;;;;;;;0.75;0.75;;;;;;;;;;5055242;28;20425;-85
2023/06/07 04:20:04;;;;;;;1.17;0.88;;;;;;;;;;5056753;28;20037;-84
2023/06/07 04:22:30;;;;;;;0.75;0.68;;;;;;;;;;5060106;28;20037;-86
2023/06/07 04:24:57;;;;;;;0.88;0.70;;;;;;;;;;5054906;28;20084;-86
2023/06/07 04:27:23;;;;;;;2.50;1.20;;;;;;;;;;5054334;28;20025;-87
2023/06/07 04:29:53;;;;;;;2.78;1.13;;;;;;;;;;5065200;28;20044;-85
2023/06/07 04:32:21;;;;;;;2.28;1.00;;;;;;;;;;5062043;28;20024;-86
2023/06/07 04:34:47;;;;;;;3.53;1.60;;;;;;;;;;5060721;28;20020;-86
2023/06/07 04:37:13;;;;;;;7.97;1.42;;;;;;;;;;5063020;28;20020;-85
2023/06/07 04:39:40;;;;;;;1.83;1.52;;;;;;;;;;5054042;28;20029;-86
2023/06/07 04:42:07;;;;;;;1.73;1.20;;;;;;;;;;5058540;28;20028;-84
2023/06/07 04:44:36;;;;;;;0.93;0.82;;;;;;;;;;5065697;28;20031;-84
2023/06/07 04:47:03;;;;;;;0.95;0.85;;;;;;;;;;5063983;28;20103;-86
2023/06/07 04:49:28;;;;;;;0.55;0.43;;;;;;;;;;5062191;28;20068;-85
2023/06/07 04:51:55;;;;;;;0.98;0.60;;;;;;;;;;5068528;28;20495;-87
2023/06/07 04:54:20;;;;;;;1.55;1.13;;;;;;;;;;5062707;28;20029;-86
2023/06/07 04:56:46;;;;;;;0.93;0.77;;;;;;;;;;5060755;28;20043;-85
2023/06/07 04:59:12;;;;;;;1.48;0.98;;;;;;;;;;5063235;28;20124;-83
2023/06/07 05:01:38;;;;;;;1.25;0.70;;;;;;;;;;5057926;28;20029;-83
2023/06/07 05:04:03;;;;;;;0.93;0.63;;;;;;;;;;5060024;28;20472;-85
2023/06/07 05:06:31;;;;;;;0.88;0.70;;;;;;;;;;5054707;28;20029;-83
2023/06/07 05:08:56;;;;;;;1.38;1.00;;;;;;;;;;5060567;28;20037;-84
2023/06/07 05:11:22;;;;;;;0.60;0.60;;;;;;;;;;5062589;28;20073;-85
2023/06/07 05:13:47;;;;;;;1.35;1.10;;;;;;;;;;5056159;28;20093;-85
2023/06/07 05:16:17;;;;;;;1.55;0.98;;;;;;;;;;5060653;28;20025;-85
2023/06/07 05:18:46;;;;;;;;;;;;;;;;;;5050385;28;20028;-83
2023/06/07 05:21:13;;;;;;;1.42;1.05;;;;;;;;;;5054913;28;20361;-83
2023/06/07 05:23:39;;;;;;;2.08;1.20;;;;;;;;;;5057870;28;20033;-83
2023/06/07 05:26:05;;;;;;;1.45;1.00;;;;;;;;;;5057641;28;20682;-86
2023/06/07 05:28:30;;;;;;;1.50;1.15;;;;;;;;;;5053736;28;20029;-84
2023/06/07 05:30:56;;;;;;;1.05;0.70;;;;;;;;;;5059999;28;20068;-84
2023/06/07 05:33:22;;;;;;;1.38;0.90;;;;;;;;;;5050845;28;20028;-84
2023/06/07 05:35:47;;;;;;;0.57;0.52;;;;;;;;;;5057715;28;20033;-83
2023/06/07 05:38:13;;;;;;;1.98;1.15;;;;;;;;;;5057577;28;20036;-84
2023/06/07 05:40:38;;;;;;;1.65;0.90;;;;;;;;;;5052523;28;20477;-83
2023/06/07 05:43:04;;;;;;;2.28;1.30;;;;;;;;;;5052305;28;20102;-84
2023/06/07 05:45:30;;;;;;;1.52;1.10;;;;;;;;;;5057991;28;20033;-83
2023/06/07 05:47:55;;;;;;;2.25;1.15;;;;;;;;;;5054715;28;20098;-84
2023/06/07 05:50:21;;;;;;;4.07;0.88;;;;;;;;;;5055672;28;20032;-86
2023/06/07 05:52:57;;;;;;;0.93;0.70;;;;;;;;;;5060518;28;20552;-86
2023/06/07 05:55:26;;;;;;;1.10;0.60;;;;;;;;;;5058162;28;20032;-85
2023/06/07 05:58:00;;;;;;;1.30;0.90;;;;;;;;;;5057918;28;20048;-86
2023/06/07 06:00:25;;;;;;;0.98;0.75;;;;;;;;;;5058193;28;20024;-85
2023/06/07 06:02:52;;;;;;;1.98;1.23;;;;;;;;;;5055200;28;20065;-87
2023/06/07 06:05:20;;;;;;;0.75;0.52;;;;;;;;;;5053657;28;20036;-84
2023/06/07 06:07:46;;;;;;;1.73;1.05;;;;;;;;;;5060316;28;20485;-83
2023/06/07 06:10:12;;;;;;;0.70;0.68;;;;;;;;;;5068782;28;20040;-87
2023/06/07 06:12:38;;;;;;;1.60;1.20;;;;;;;;;;5054021;28;20017;-86
2023/06/07 06:15:03;;;;;;;1.40;0.88;;;;;;;;;;5048445;28;20116;-81
2023/06/07 06:17:30;;;;;;;1.88;0.68;;;;;;;;;;5050603;28;20558;-84
2023/06/07 06:19:55;;;;;;;1.38;1.00;;;;;;;;;;5049219;28;20021;-84
2023/06/07 06:22:21;;;;;;;2.33;1.10;;;;;;;;;;5050257;28;20021;-83
2023/06/07 06:24:46;;;;;;;2.13;1.13;;;;;;;;;;5055252;28;20025;-83
2023/06/07 06:27:12;;;;;;;0.95;0.70;;;;;;;;;;5050315;28;20020;-83
2023/06/07 06:29:38;;;;;;;7.80;1.00;;;;;;;;;;5048619;28;20781;-83
2023/06/07 06:32:04;;;;;;;0.70;0.52;;;;;;;;;;5046715;28;20021;-84
2023/06/07 06:34:30;;;;;;;7.65;1.75;;;;;;;;;;5052798;28;20096;-84
2023/06/07 06:36:57;;;;;;;1.85;1.00;;;;;;;;;;5050364;28;20025;-83
2023/06/07 06:39:23;;;;;;;4.15;1.27;;;;;;;;;;5063323;28;20054;-82
2023/06/07 06:41:49;;;;;;;1.48;0.98;;;;;;;;;;5064761;28;20458;-82
2023/06/07 06:44:14;;;;;;;1.58;1.13;;;;;;;;;;5063728;28;20036;-83
2023/06/07 06:46:40;;;;;;;3.05;1.67;;;;;;;;;;5053976;28;20033;-83
2023/06/07 06:49:05;;;;;;;3.13;1.15;;;;;;;;;;5061110;28;20542;-83
2023/06/07 06:51:31;;;;;;;2.70;1.60;;;;;;;;;;5061912;28;20161;-84
2023/06/07 06:53:56;;;;;;;1.30;0.95;;;;;;;;;;5052595;28;20108;-83
2023/06/07 06:56:22;;;;;;;9.68;1.17;;;;;;;;;;5054241;28;20025;-84
2023/06/07 06:58:47;;;;;;;1.42;0.70;;;;;;;;;;5062688;28;20103;-84
2023/06/07 07:01:16;;;;;;;2.92;1.30;;;;;;;;;;5065320;28;20388;-83
2023/06/07 07:03:42;;;;;;;2.33;1.10;;;;;;;;;;5050072;28;20040;-84
2023/06/07 07:06:08;;;;;;;2.92;0.93;;;;;;;;;;5062759;28;20026;-84
2023/06/07 07:08:35;;;;;;;1.67;1.40;;;;;;;;;;5062021;28;20035;-83
2023/06/07 07:11:01;;;;;;;1.38;0.90;;;;;;;;;;5057094;28;20033;-85
2023/06/07 07:13:26;;;;;;;1.15;0.70;;;;;;;;;;5055833;28;20477;-84
2023/06/07 07:15:52;;;;;;;5.15;1.25;;;;;;;;;;5054722;28;21917;-84
2023/06/07 07:18:17;;;;;;;0.50;0.50;;;;;;;;;;5059396;28;20183;-84
2023/06/07 07:20:43;;;;;;;1.45;0.90;;;;;;;;;;5050730;28;20441;-84
2023/06/07 07:23:08;;;;;;;1.40;0.80;;;;;;;;;;5053967;28;20051;-83
2023/06/07 07:25:34;;;;;;;0.70;0.70;;;;;;;;;;5055019;28;20028;-84
2023/06/07 07:28:00;;;;;;;11.30;1.25;;;;;;;;;;5063552;28;20162;-83
2023/06/07 07:30:25;;;;;;;0.85;0.50;;;;;;;;;;5060898;28;20048;-83
2023/06/07 07:32:51;;;;;;;0.93;0.80;;;;;;;;;;5055712;28;20103;-83
2023/06/07 07:35:16;;;;;;;1.75;1.15;;;;;;;;;;5055497;28;20108;-83
2023/06/07 07:37:44;;;;;;;1.70;0.98;;;;;;;;;;5061914;28;20029;-84
2023/06/07 07:40:09;;;;;;;2.45;0.98;;;;;;;;;;5056758;28;20020;-86
2023/06/07 07:42:35;;;;;;;1.05;0.80;;;;;;;;;;5062160;28;20430;-83
2023/06/07 07:45:01;;;;;;;2.08;1.08;;;;;;;;;;5055196;28;20511;-83
2023/06/07 07:47:26;;;;;;;1.63;1.08;;;;;;;;;;5055135;28;20033;-84
2023/06/07 07:49:51;;;;;;;1.48;0.90;;;;;;;;;;5054878;28;20035;-83
2023/06/07 07:52:17;;;;;;;1.40;0.90;;;;;;;;;;5060737;28;20074;-83
2023/06/07 07:54:43;;;;;;;1.17;0.50;;;;;;;;;;5057890;28;20047;-86
2023/06/07 07:57:08;;;;;;;1.63;0.88;;;;;;;;;;5053976;28;20043;-83
2023/06/07 07:59:34;;;;;;;1.33;0.80;;;;;;;;;;5057134;28;20112;-84
2023/06/07 08:02:00;;;;;;;0.85;0.80;;;;;;;;;;5052729;28;20029;-83
2023/06/07 08:04:26;;;;;;;1.83;1.35;;;;;;;;;;5060012;28;20433;-83
2023/06/07 08:06:51;;;;;;;1.60;1.13;;;;;;;;;;5052979;28;20028;-83
2023/06/07 08:09:16;;;;;;;0.52;0.50;;;;;;;;;;5059062;28;20032;-83
2023/06/07 08:11:42;;;;;;;1.77;1.05;;;;;;;;;;5051706;28;20032;-83
2023/06/07 08:14:07;;;;;;;2.90;0.90;;;;;;;;;;5055606;28;20040;-84
2023/06/07 08:16:33;;;;;;;1.15;0.95;;;;;;;;;;5053121;28;20037;-85
2023/06/07 08:18:58;;;;;;;0.82;0.70;;;;;;;;;;5064100;28;20033;-85
2023/06/07 08:21:27;;;;;;;1.38;0.85;;;;;;;;;;5061982;28;20071;-84
2023/06/07 08:23:56;;;;;;;1.20;0.80;;;;;;;;;;5052665;28;20021;-85
2023/06/07 08:26:22;;;;;;;1.70;0.93;;;;;;;;;;5061070;28;20033;-83
2023/06/07 08:28:48;;;;;;;1.38;0.98;;;;;;;;;;5053741;28;20155;-83
2023/06/07 08:31:13;;;;;;;3.70;1.50;;;;;;;;;;5058145;28;20052;-84
2023/06/07 08:33:39;;;;;;;0.70;0.68;;;;;;;;;;5059285;28;20021;-84
2023/06/07 08:36:04;;;;;;;1.15;0.75;;;;;;;;;;5060038;28;20100;-84
2023/06/07 08:38:30;;;;;;;2.00;1.02;;;;;;;;;;5062879;28;20111;-84
2023/06/07 08:40:56;;;;;;;1.30;1.00;;;;;;;;;;5062015;28;20063;-83
2023/06/07 08:43:23;;;;;;;5.07;1.00;;;;;;;;;;5054051;28;20051;-85
2023/06/07 08:45:50;;;;;;;0.60;0.60;;;;;;;;;;5058766;28;20075;-83
2023/06/07 08:48:16;;;;;;;2.13;0.82;;;;;;;;;;5055283;28;20029;-84
2023/06/07 08:50:44;;;;;;;2.00;1.30;;;;;;;;;;5061693;28;20033;-83
2023/06/07 08:53:13;;;;;;;1.90;0.82;;;;;;;;;;5055373;28;20021;-85
2023/06/07 08:55:39;;;;;;;1.15;0.80;;;;;;;;;;5065073;28;20028;-84
2023/06/07 08:58:07;;;;;;;2.83;1.20;;;;;;;;;;5047963;28;20037;-84
2023/06/07 09:00:32;;;;;;;1.17;0.88;;;;;;;;;;5062698;28;20052;-83
2023/06/07 09:02:58;;;;;;;0.85;0.77;;;;;;;;;;5051667;28;20056;-84
2023/06/07 09:05:24;;;;;;;2.58;1.33;;;;;;;;;;5053701;28;20033;-85
2023/06/07 09:07:50;;;;;;;1.60;1.20;;;;;;;;;;5051708;28;20389;-83
2023/06/07 09:10:21;;;;;;;1.35;1.02;;;;;;;;;;5059231;28;20055;-89
2023/06/07 09:12:48;;;;;;;2.97;0.65;;;;;;;;;;5055296;28;20023;-85
2023/06/07 09:15:19;;;;;;;1.33;0.88;;;;;;;;;;5045736;28;20455;-83
2023/06/07 09:17:58;;;;;;;3.25;1.27;;;;;;;;;;5052184;28;20058;-84
2023/06/07 09:20:28;;;;;;;1.35;1.15;;;;;;;;;;5052035;28;20037;-84
2023/06/07 09:23:00;;;;;;;2.58;1.48;;;;;;;;;;5057082;28;20393;-84
2023/06/07 09:25:27;;;;;;;1.30;0.80;;;;;;;;;;5051789;28;20504;-84
2023/06/07 09:27:54;;;;;;;1.35;1.00;;;;;;;;;;5051790;28;20362;-85
2023/06/07 09:30:23;;;;;;;1.02;0.60;;;;;;;;;;5054841;28;20045;-84
2023/06/07 09:32:49;;;;;;;0.77;0.70;;;;;;;;;;5058273;28;20029;-84
2023/06/07 09:35:19;;;;;;;1.73;1.05;;;;;;;;;;5058359;28;20039;-85
2023/06/07 09:37:51;;;;;;;1.25;0.73;;;;;;;;;;5051777;28;20037;-83
2023/06/07 09:40:16;;;;;;;4.97;1.08;;;;;;;;;;5057615;28;20036;-85
2023/06/07 09:42:56;;;;;;;0.80;0.70;;;;;;;;;;5047863;28;20393;-90
2023/06/07 09:45:23;;;;;;;2.38;1.08;;;;;;;;;;5054649;28;20473;-86
2023/06/07 09:48:10;;;;;;;1.25;0.82;;;;;;;;;;5055775;28;20021;-85
2023/06/07 09:50:39;;;;;;;2.75;1.20;;;;;;;;;;5045214;28;20053;-86
2023/06/07 09:53:09;;;;;;;2.22;0.85;;;;;;;;;;5055122;28;20025;-87
2023/06/07 09:55:40;;;;;;;1.33;1.05;;;;;;;;;;5056356;28;20032;-86
2023/06/07 09:58:20;;;;;;;1.75;1.40;;;;;;;;;;5059340;28;20124;-87
2023/06/07 10:00:46;;;;;;;1.90;0.88;;;;;;;;;;5054893;28;20103;-87
2023/06/07 10:03:13;;;;;;;1.85;0.93;;;;;;;;;;5047011;28;20103;-87
2023/06/07 10:05:39;;;;;;;1.92;1.30;;;;;;;;;;5059656;28;20453;-86
2023/06/07 10:08:15;;;;;;;1.50;1.08;;;;;;;;;;5058142;28;20044;-87
2023/06/07 10:10:45;;;;;;;0.93;0.70;;;;;;;;;;5052818;28;20028;-88
2023/06/07 10:13:17;;;;;;;;;;;;;;;;;;5057602;28;20036;-87
2023/06/07 10:15:57;;;;;;;1.08;0.98;;;;;;;;;;5055310;28;19920;-84
2023/06/07 10:18:26;;;;;;;1.08;0.85;;;;;;;;;;5048435;28;20052;-84
2023/06/07 10:21:00;;;;;;;2.25;1.08;;;;;;;;;;5052045;28;20082;-84
2023/06/07 10:23:43;;;;;;;1.13;1.02;;;;;;;;;;5049379;28;20033;-86
2023/06/07 10:26:18;;;;;;;1.98;1.10;;;;;;;;;;5056903;28;20028;-84
2023/06/07 10:28:52;;;;;;;2.80;1.08;;;;;;;;;;5048480;28;20031;-85
2023/06/07 10:31:20;;;;;;;1.42;0.77;;;;;;;;;;5056151;28;20741;-85
2023/06/07 10:33:48;;;;;;;1.55;1.00;;;;;;;;;;5050839;28;20543;-84
2023/06/07 10:36:13;;;;;;;1.45;0.98;;;;;;;;;;5055994;28;20028;-84
2023/06/07 10:38:41;;;;;;;1.00;0.93;;;;;;;;;;5059620;28;20033;-84
2023/06/07 10:41:06;;;;;;;2.50;1.23;;;;;;;;;;5048505;28;20086;-85
2023/06/07 10:43:33;;;;;;;1.42;1.10;;;;;;;;;;5056440;28;20029;-84
2023/06/07 10:46:23;;;;;;;3.80;1.38;;;;;;;;;;5053260;28;20057;-84
2023/06/07 10:48:49;;;;;;;2.05;1.02;;;;;;;;;;5056573;28;20477;-84
2023/06/07 10:51:15;;;;;;;1.42;0.68;;;;;;;;;;5056444;28;20377;-85
2023/06/07 10:53:55;;;;;;;2.65;1.20;;;;;;;;;;5061759;28;20050;-85
2023/06/07 10:56:35;;;;;;;1.27;0.98;;;;;;;;;;5055220;28;20088;-84
2023/06/07 10:59:13;;;;;;;1.27;1.10;;;;;;;;;;5050394;28;20025;-84
2023/06/07 11:01:39;;;;;;;2.75;1.52;;;;;;;;;;5053357;28;20480;-88
2023/06/07 11:04:04;;;;;;;1.13;1.02;;;;;;;;;;5054184;28;20024;-86
2023/06/07 11:06:32;;;;;;;1.85;1.10;;;;;;;;;;5052155;28;20037;-87
2023/06/07 11:09:21;;;;;;;1.85;0.88;;;;;;;;;;5063105;28;20032;-88
2023/06/07 11:11:47;;;;;;;1.17;0.90;;;;;;;;;;5059925;28;20028;-85
2023/06/07 11:14:13;;;;;;;1.83;1.20;;;;;;;;;;5054224;28;20067;-86
2023/06/07 11:16:39;;;;;;;2.15;1.17;;;;;;;;;;5059015;28;20024;-86
2023/06/07 11:19:09;;;;;;;1.27;1.17;;;;;;;;;;5051077;28;20052;-86
2023/06/07 11:21:53;;;;;;;1.60;1.10;;;;;;;;;;5055999;28;20056;-88
2023/06/07 11:24:20;;;;;;;1.75;0.95;;;;;;;;;;5055005;28;20040;-86
2023/06/07 11:26:47;;;;;;;3.13;0.93;;;;;;;;;;5056550;28;20366;-89
2023/06/07 11:29:14;;;;;;;1.80;1.20;;;;;;;;;;5061419;28;20025;-86
2023/06/07 11:31:39;;;;;;;1.10;0.80;;;;;;;;;;5056974;28;20120;-86
2023/06/07 11:34:05;;;;;;;1.10;0.80;;;;;;;;;;5060069;28;20103;-86
2023/06/07 11:36:34;;;;;;;1.38;0.82;;;;;;;;;;5058261;28;20056;-87
2023/06/07 11:39:03;;;;;;;1.55;0.95;;;;;;;;;;5058572;28;20036;-86
2023/06/07 11:41:29;;;;;;;1.60;0.90;;;;;;;;;;5071545;28;20024;-87
2023/06/07 11:43:56;;;;;;;1.50;1.20;;;;;;;;;;5066319;28;20032;-88
2023/06/07 11:46:22;;;;;;;1.27;0.98;;;;;;;;;;5065245;28;20097;-87
2023/06/07 11:48:47;;;;;;;0.80;0.80;;;;;;;;;;5061909;28;20488;-88
2023/06/07 11:51:13;;;;;;;2.05;1.33;;;;;;;;;;5065062;28;20078;-88
2023/06/07 11:53:39;;;;;;;1.98;1.27;;;;;;;;;;5064357;28;20033;-90
2023/06/07 11:56:04;;;;;;;1.13;1.02;;;;;;;;;;5064393;28;20051;-89
2023/06/07 11:58:30;;;;;;;1.40;0.90;;;;;;;;;;5066652;28;20388;-89
2023/06/07 12:00:56;;;;;;;1.45;1.08;;;;;;;;;;5061263;28;20104;-90
2023/06/07 12:03:22;;;;;;;1.67;0.95;;;;;;;;;;5063637;28;20033;-86
2023/06/07 12:05:48;;;;;;;1.30;1.10;;;;;;;;;;5062310;28;20085;-90
2023/06/07 12:08:16;;;;;;;1.40;0.90;;;;;;;;;;5057243;28;20104;-86
2023/06/07 12:10:45;;;;;;;2.40;1.40;;;;;;;;;;5055146;28;20028;-89
2023/06/07 12:13:11;;;;;;;1.42;0.82;;;;;;;;;;5061205;28;20027;-90
2023/06/07 12:15:46;;;;;;;1.38;0.90;;;;;;;;;;5058458;28;20029;-87
2023/06/07 12:18:18;;;;;;;1.63;0.98;;;;;;;;;;5061204;28;20020;-89
2023/06/07 12:20:45;;;;;;;1.52;1.08;;;;;;;;;;5063267;28;20032;-89
2023/06/07 12:23:11;;;;;;;1.17;0.90;;;;;;;;;;5058889;28;20024;-88
2023/06/07 12:25:38;;;;;;;2.13;1.40;;;;;;;;;;5063165;28;20029;-88
2023/06/07 12:28:08;;;;;;;6.55;1.30;;;;;;;;;;5065331;28;20021;-87
2023/06/07 12:30:37;;;;;;;1.95;1.10;;;;;;;;;;5058357;28;20500;-89
2023/06/07 12:33:03;;;;;;;2.47;1.92;;;;;;;;;;5067041;28;20384;-89
2023/06/07 12:35:39;;;;;;;1.55;1.15;;;;;;;;;;5052563;28;20041;-89
2023/06/07 12:38:06;;;;;;;1.67;0.98;;;;;;;;;;5062388;28;20106;-87
2023/06/07 12:40:32;;;;;;;1.90;1.05;;;;;;;;;;5060772;28;20036;-88
2023/06/07 12:42:58;;;;;;;2.33;1.40;;;;;;;;;;5061235;28;20029;-88
2023/06/07 12:45:23;;;;;;;1.65;1.17;;;;;;;;;;5058295;28;20047;-87
2023/06/07 12:47:49;;;;;;;1.88;1.27;;;;;;;;;;5060482;28;20027;-86
2023/06/07 12:50:14;;;;;;;2.00;1.30;;;;;;;;;;5064651;28;20107;-86
2023/06/07 12:52:40;;;;;;;1.48;1.13;;;;;;;;;;5057831;28;20032;-87
2023/06/07 12:55:05;;;;;;;1.88;1.20;;;;;;;;;;5058450;28;20059;-88
2023/06/07 12:57:31;;;;;;;1.17;1.08;;;;;;;;;;5061597;28;20028;-88
2023/06/07 12:59:56;;;;;;;3.25;1.77;;;;;;;;;;5056894;28;20044;-90
2023/06/07 13:02:22;;;;;;;1.45;1.00;;;;;;;;;;5059537;28;20028;-90
2023/06/07 13:04:48;;;;;;;1.75;1.10;;;;;;;;;;5052751;28;20055;-89
2023/06/07 13:07:14;;;;;;;0.82;0.75;;;;;;;;;;5052073;28;20237;-87
2023/06/07 13:09:39;;;;;;;1.35;0.90;;;;;;;;;;5058410;28;20028;-86
2023/06/07 13:12:06;;;;;;;0.95;0.82;;;;;;;;;;5057950;28;20491;-86
2023/06/07 13:14:32;;;;;;;2.63;1.63;;;;;;;;;;5066023;28;20055;-86
2023/06/07 13:16:57;;;;;;;0.75;0.68;;;;;;;;;;5059114;28;20473;-87
2023/06/07 13:19:23;;;;;;;1.60;1.20;;;;;;;;;;5053101;28;20029;-86
2023/06/07 13:21:48;;;;;;;1.42;0.80;;;;;;;;;;5055785;28;20115;-84
2023/06/07 13:24:14;;;;;;;1.13;0.70;;;;;;;;;;5057444;28;20099;-86
2023/06/07 13:26:40;;;;;;;2.42;1.08;;;;;;;;;;5060477;28;20083;-87
2023/06/07 13:29:05;;;;;;;1.10;0.70;;;;;;;;;;5057521;28;20572;-87
2023/06/07 13:31:31;;;;;;;0.90;0.70;;;;;;;;;;5061713;28;20735;-86
2023/06/07 13:33:56;;;;;;;1.63;1.10;;;;;;;;;;5056378;28;20467;-88
2023/06/07 13:36:23;;;;;;;1.73;1.33;;;;;;;;;;5059358;28;20068;-87
2023/06/07 13:38:49;;;;;;;1.30;0.85;;;;;;;;;;5063681;28;20460;-87
2023/06/07 13:41:14;;;;;;;1.75;1.10;;;;;;;;;;5055009;28;20036;-88
2023/06/07 13:43:40;;;;;;;0.75;0.70;;;;;;;;;;5052063;28;20056;-87
2023/06/07 13:46:06;;;;;;;1.52;0.80;;;;;;;;;;5060460;28;20028;-85
2023/06/07 13:48:32;;;;;;;1.35;0.88;;;;;;;;;;5061088;28;20452;-87
2023/06/07 13:50:57;;;;;;;1.20;0.90;;;;;;;;;;5056364;28;20083;-89
2023/06/07 13:53:23;;;;;;;1.33;0.93;;;;;;;;;;5060033;28;20032;-86
2023/06/07 13:55:50;;;;;;;1.77;0.93;;;;;;;;;;5061219;28;20029;-87
2023/06/07 13:58:18;;;;;;;1.70;1.15;;;;;;;;;;5057378;28;20442;-87
2023/06/07 14:00:44;;;;;;;2.30;0.93;;;;;;;;;;5058914;28;20124;-87
2023/06/07 14:03:10;;;;;;;1.83;1.13;;;;;;;;;;5061642;28;20592;-86
2023/06/07 14:05:35;;;;;;;1.35;1.10;;;;;;;;;;5052665;28;20032;-85
2023/06/07 14:08:02;;;;;;;1.50;1.00;;;;;;;;;;5056164;28;20029;-89
2023/06/07 14:10:29;;;;;;;2.08;1.33;;;;;;;;;;5051470;28;20104;-85
2023/06/07 14:12:55;;;;;;;1.33;1.00;;;;;;;;;;5058709;28;20503;-85
2023/06/07 14:15:21;;;;;;;1.63;0.93;;;;;;;;;;5053491;28;20021;-86
2023/06/07 14:17:46;;;;;;;1.88;0.95;;;;;;;;;;5059217;28;20031;-85
2023/06/07 14:20:12;;;;;;;1.50;0.90;;;;;;;;;;5060597;28;20457;-86
2023/06/07 14:22:38;;;;;;;1.05;0.70;;;;;;;;;;5052908;28;20033;-85
2023/06/07 14:25:04;;;;;;;0.98;0.65;;;;;;;;;;5057321;28;20045;-85
2023/06/07 14:27:29;;;;;;;2.03;0.90;;;;;;;;;;5052893;28;20028;-85
2023/06/07 14:29:54;;;;;;;1.30;1.08;;;;;;;;;;5056117;28;20047;-85
2023/06/07 14:32:20;;;;;;;1.08;0.95;;;;;;;;;;5045962;28;20028;-85
2023/06/07 14:34:45;;;;;;;1.60;1.10;;;;;;;;;;5060455;28;20029;-88
2023/06/07 14:37:11;;;;;;;1.00;0.90;;;;;;;;;;5058344;28;20036;-87
2023/06/07 14:39:36;;;;;;;1.27;0.93;;;;;;;;;;5065835;28;20024;-88
2023/06/07 14:42:02;;;;;;;2.10;1.15;;;;;;;;;;5050495;28;20446;-84
2023/06/07 14:44:28;;;;;;;1.67;0.90;;;;;;;;;;5056621;28;20037;-85
2023/06/07 14:46:53;;;;;;;1.67;0.90;;;;;;;;;;5061185;28;20055;-86